METAR AND TAF INFORMATION
METAR FOR OIMM
ADDS - METARS form results

(1928 UTC 21 June 2018)
Data provider http://aviationweather.gov/adds/metars/
 
METAR text: OIMM 211900Z 19004KT CAVOK 25/02 Q1015 A2999
Conditions at: OIMM (MASHHAD (AFB/CIV, IR) observed 1900 UTC 21 June 2018
Temperature: 25.0°C (77°F)
Dewpoint: 2.0°C (36°F) [RH = 22%]
Pressure (altimeter): 29.97 inches Hg (1015.0 mb)
Winds: from the S (190 degrees) at 5 MPH (4 knots; 2.1 m/s)
Visibility: 6 or more miles (10+ km)
Ceiling: ceiling and visibility are OK
Clouds: unknown
Weather: no significant weather observed at this time

METAR text: OIMM 211830Z 20004KT CAVOK 25/02 Q1015 A3000
Conditions at: OIMM (MASHHAD (AFB/CIV, IR) observed 1830 UTC 21 June 2018
Temperature: 25.0°C (77°F)
Dewpoint: 2.0°C (36°F) [RH = 22%]
Pressure (altimeter): 29.97 inches Hg (1015.0 mb)
Winds: from the SSW (200 degrees) at 5 MPH (4 knots; 2.1 m/s)
Visibility: 6 or more miles (10+ km)
Ceiling: ceiling and visibility are OK
Clouds: unknown
Weather: no significant weather observed at this time

Forecast for: OIMM (MASHHAD (AFB/CIV, IR)
Text: TAF OIMM 211730Z 2118/2224 08003MPS 8000 FEW040
Forecast period: 1800 UTC 21 June 2018 to 0000 UTC 23 June 2018
Forecast type: FROM: standard forecast or significant change
Winds: from the E (80 degrees) at 7 MPH (6 knots; 3.1 m/s)
Visibility: 5 miles (8 km)
Clouds: few clouds at 4000 feet AGL
Weather: no significant weather forecast for this period
Text: TEMPO 2209/2215 08008MPS FEW035TCU SCT040 SCT100
Forecast period: 0900 to 1500 UTC 22 June 2018
Forecast type: TEMPORARY: The following changes expected for less than half the time period
Winds: from the E (80 degrees) at 18 MPH (16 knots; 8.3 m/s)
Clouds: few clouds at 3500 feet AGL
scattered clouds at 4000 feet AGL
scattered clouds at 10000 feet AGL
Weather: no significant weather forecast for this period

 AIRPORT MAP

 RUNWAY INFORMATION
Runway 13L Runway length 12503 ft Runway width 148 ft
Runway elevation 3226 ft Runway displaced threshold 0 ft Runway heading 134
Runway 31R Runway length 12503 ft Runway width 148 ft
Runway elevation 3257 ft Runway displaced threshold 0 ft Runway heading 314
Runway 13R Runway length 12877 ft Runway width 148 ft
Runway elevation 3231 ft Runway displaced threshold 0 ft Runway heading 134
Runway 31L Runway length 12877 ft Runway width 148 ft
Runway elevation 3263 ft Runway displaced threshold 0 ft Runway heading 314

 AIRPORT FREQUENCIES
Type APP Name APP Frequency 127.3 MHZ
Type ATIS Name ATIS Frequency 126.4 MHZ
Type TWR Name TWR Frequency 118.1 MHZ

 AIRPORT NEAR NAVIGATION AIDS
Type TACAN Name Mashhad Frequency 111900 KHZ
Type VOR-DME Name Mashhad Frequency 114000 KHZ
Type NDB Name Mashhad Frequency 385 KHZ



Copyright @ Zagros Virtual Airline